Fairweather Ground 105NM West of Juneau, AK (46083)

Conditions for Thursday

Daily
Weekly
Monthly
Marine Data Graph

Marine & Boating Location Search

Enter a coastal zip code for marine weather.

General Information

Location: 58.3 North -137.997 West
Buoy Type: 3-meter foam buoy
Buoy Hull: 6N31
Payload: AMPS payload
Owned by: NDBC
Windspeed: Measured by obtained from anemometer
Sea Surface: Measured by Intake

Weather and Wave Data

Time Temp Humidity Wind Dominant Wave Wind Wave Wave Swell Pressure
  Air
(°F)
Water
(°F)
  Dir Speed
(kts)
Speed
(mph)
Period
(sec)
Height
(ft)
Range
(ft)
Period
(sec)
Height
(ft)
Range
(ft)
Period
(sec)
Height
(ft)
Range
(ft)
Atmo.
(in)
Tend.
(in)
20:50 42 47 57 North 1.9 2.2 10 4.92 exactly 4.9 4 1.64 0.82 - 2.46 10 4.92 4.10 - 5.74 30.29 +0.06
21:50 43 47 57 North 5.8 6.7 9 4.92 exactly 4.9 3 1.64 0.82 - 2.46 9 4.92 4.10 - 5.74 30.31 +0.05
22:50 43 47 59 North 5.8 6.7 10 4.27 exactly 4.3 4 1.64 0.82 - 2.46 10 3.28 2.46 - 4.10 30.32 +0.04
23:50 43 47 59 North 7.8 8.9 9 4.59 exactly 4.6 4 1.64 0.82 - 2.46 9 4.92 4.10 - 5.74 30.33 +0.04
00:50 42 47 64 NNW 7.8 8.9 10 4.27 exactly 4.3 4 1.64 0.82 - 2.46 10 3.28 2.46 - 4.10 30.34 +0.04
01:50 43 47 63 NW 7.8 8.9 9 4.27 exactly 4.3 4 1.64 0.82 - 2.46 9 3.28 2.46 - 4.10 30.35 +0.04
02:50 43 47 67 NW 9.7 11.2 9 4.27 exactly 4.3 4 1.64 0.82 - 2.46 9 4.92 4.10 - 5.74 30.36 +0.02
03:50 42 47 59 North 7.8 8.9 8 4.27 exactly 4.3 4 1.64 0.82 - 2.46 8 3.28 2.46 - 4.10 30.35 -
04:50 42 47 54 North 7.8 8.9 9 4.59 exactly 4.6 4 1.64 0.82 - 2.46 9 4.92 4.10 - 5.74 30.35 -
05:50 41 47 55 North 7.8 8.9 8 3.94 exactly 3.9 4 1.64 0.82 - 2.46 8 3.28 2.46 - 4.10 30.35 -0.01
06:50 41 47 52 North 7.8 8.9 8 4.27 exactly 4.3 4 1.64 0.82 - 2.46 8 4.92 4.10 - 5.74 30.35 -
07:50 41 47 50 North 5.8 6.7 9 4.92 exactly 4.9 4 1.64 0.82 - 2.46 9 4.92 4.10 - 5.74 30.35 -
08:50 41 47 49 North 5.8 6.7 8 4.27 exactly 4.3 4 1.64 0.82 - 2.46 8 4.92 4.10 - 5.74 30.35 -
09:50 41 47 53 NNE 7.8 8.9 9 4.27 exactly 4.3 4 1.64 0.82 - 2.46 9 3.28 2.46 - 4.10 30.35 -
10:50 41 47 57 NNE 5.8 6.7 10 4.59 exactly 4.6 4 1.64 0.82 - 2.46 10 4.92 4.10 - 5.74 30.36 +0.01
11:50 40 47 53 North 3.9 4.5 8 3.94 exactly 3.9 4 1.64 0.82 - 2.46 8 3.28 2.46 - 4.10 30.36 +0.01
12:50 41 47 52 North 5.8 6.7 9 3.94 exactly 3.9 4 1.64 0.82 - 2.46 9 3.28 2.46 - 4.10 30.36 -
13:50 41 47 55 North 7.8 8.9 9 3.94 exactly 3.9 4 1.64 0.82 - 2.46 9 3.28 2.46 - 4.10 30.35 -
14:50 41 47 55 North 7.8 8.9 9 3.61 exactly 3.6 4 1.64 0.82 - 2.46 9 3.28 2.46 - 4.10 30.34 -0.02
15:50 41 47 56 North 7.8 8.9 8 3.61 exactly 3.6 4 1.64 0.82 - 2.46 8 3.28 2.46 - 4.10 30.34 -0.02
16:50 40 47 59 North 9.7 11.2 8 3.61 exactly 3.6 3 1.64 0.82 - 2.46 8 3.28 2.46 - 4.10 30.33 -0.02
17:50 40 47 56 North 11.7 13.4 8 3.28 exactly 3.3 3 1.64 0.82 - 2.46 8 3.28 2.46 - 4.10 30.32 -0.02
18:50 40 47 52 North 9.7 11.2 8 3.61 exactly 3.6 3 1.64 0.82 - 2.46 8 3.28 2.46 - 4.10 30.32 -0.02
19:50 40 47 55 North 7.8 8.9 8 3.28 exactly 3.3 3 1.64 0.82 - 2.46 8 3.28 2.46 - 4.10 30.32 -0.01
20:50 40 46 54 NNW 7.8 8.9 8 3.28 exactly 3.3 3 1.64 0.82 - 2.46 8 3.28 2.46 - 4.10 30.32 -
21:50 40 46 57 NNW 5.8 6.7 7 3.61 exactly 3.6 4 1.64 0.82 - 2.46 7 3.28 2.46 - 4.10 30.32 -
22:50 40 46 58 NNW 5.8 6.7 7 2.95 exactly 3.0 4 1.64 0.82 - 2.46 7 3.28 2.46 - 4.10 30.31 -0.01
23:50 40 46 59 North 3.9 4.5 8 3.28 exactly 3.3 4 1.64 0.82 - 2.46 8 3.28 2.46 - 4.10 30.31 -0.01
00:50 40 46 58 North 5.8 6.7 8 3.28 exactly 3.3 4 1.64 0.82 - 2.46 8 3.28 2.46 - 4.10 30.30 -0.01
01:50 40 46 63 SSE 7.8 8.9 7 3.28 exactly 3.3 4 1.64 0.82 - 2.46 7 3.28 2.46 - 4.10 30.30 -0.01
02:50 39 46 70 SSE 9.7 11.2 8 3.28 exactly 3.3 4 1.64 0.82 - 2.46 8 3.28 2.46 - 4.10 30.29 -0.02
03:50 38 46 72 SSE 7.8 8.9 14 2.95 exactly 3.0 4 1.64 0.82 - 2.46 14 3.28 2.46 - 4.10 30.28 -0.02

Detailed Wave Spectra

Time Water Depth Wave Height Spectral Peak Period Average Wave Period Sampling Interval Wave Record
20:00 463 ft 5.64 ft 9.1 sec 6.0 sec 0.6 sec 2400 sec
21:00 463 ft 5.02 ft 10.0 sec 5.8 sec 0.6 sec 2400 sec
22:00 463 ft 4.82 ft 9.1 sec 5.8 sec 0.6 sec 2400 sec
23:00 463 ft 4.23 ft 10.0 sec 5.7 sec 0.6 sec 2400 sec
00:00 463 ft 4.69 ft 9.1 sec 6.0 sec 0.6 sec 2400 sec
01:00 463 ft 4.27 ft 10.0 sec 6.0 sec 0.6 sec 2400 sec
02:00 463 ft 4.20 ft 9.1 sec 6.0 sec 0.6 sec 2400 sec
03:00 463 ft 4.43 ft 9.1 sec 6.2 sec 0.6 sec 2400 sec
04:00 463 ft 4.30 ft 8.3 sec 6.2 sec 0.6 sec 2400 sec
05:00 463 ft 4.72 ft 9.1 sec 6.5 sec 0.6 sec 2400 sec
06:00 463 ft 3.94 ft 8.3 sec 6.2 sec 0.6 sec 2400 sec
07:00 463 ft 4.40 ft 8.3 sec 6.5 sec 0.6 sec 2400 sec
08:00 463 ft 4.79 ft 9.1 sec 6.9 sec 0.6 sec 2400 sec
09:00 463 ft 4.30 ft 8.3 sec 6.6 sec 0.6 sec 2400 sec
10:00 463 ft 4.23 ft 9.1 sec 6.4 sec 0.6 sec 2400 sec
11:00 463 ft 4.53 ft 10.0 sec 6.7 sec 0.6 sec 2400 sec
12:00 463 ft 4.00 ft 8.3 sec 6.3 sec 0.6 sec 2400 sec
13:00 463 ft 3.97 ft 9.1 sec 6.0 sec 0.6 sec 2400 sec
14:00 463 ft 4.07 ft 9.1 sec 6.1 sec 0.6 sec 2400 sec
15:00 463 ft 3.61 ft 9.1 sec 5.6 sec 0.6 sec 2400 sec
16:00 463 ft 3.54 ft 8.3 sec 5.6 sec 0.6 sec 2400 sec
17:00 463 ft 3.48 ft 8.3 sec 5.5 sec 0.6 sec 2400 sec
18:00 463 ft 3.35 ft 8.3 sec 4.9 sec 0.6 sec 2400 sec
19:00 463 ft 3.51 ft 7.7 sec 5.1 sec 0.6 sec 2400 sec
20:00 463 ft 3.28 ft 7.7 sec 5.1 sec 0.6 sec 2400 sec
21:00 463 ft 3.31 ft 8.3 sec 5.5 sec 0.6 sec 2400 sec
22:00 463 ft 3.58 ft 7.1 sec 5.8 sec 0.6 sec 2400 sec
23:00 463 ft 3.12 ft 7.1 sec 5.3 sec 0.6 sec 2400 sec
00:00 463 ft 3.41 ft 7.7 sec 5.3 sec 0.6 sec 2400 sec
01:00 463 ft 3.31 ft 7.7 sec 5.1 sec 0.6 sec 2400 sec
02:00 463 ft 3.28 ft 7.1 sec 5.2 sec 0.6 sec 2400 sec
03:00 463 ft 3.41 ft 7.7 sec 5.2 sec 0.6 sec 2400 sec